sensor_id;sensor_type;location;lat;lon;timestamp;P1;durP1;ratioP1;P2;durP2;ratioP2
2129;SDS011;1071;52.544;13.374;2023-08-17T00:00:46;4.37;;;3.10;;
2129;SDS011;1071;52.544;13.374;2023-08-17T00:03:13;3.73;;;2.93;;
2129;SDS011;1071;52.544;13.374;2023-08-17T00:05:40;3.20;;;3.00;;
2129;SDS011;1071;52.544;13.374;2023-08-17T00:08:10;3.50;;;3.17;;
2129;SDS011;1071;52.544;13.374;2023-08-17T00:13:27;5.97;;;3.20;;
2129;SDS011;1071;52.544;13.374;2023-08-17T00:15:54;3.83;;;3.50;;
2129;SDS011;1071;52.544;13.374;2023-08-17T00:18:31;4.73;;;3.30;;
2129;SDS011;1071;52.544;13.374;2023-08-17T00:20:58;6.00;;;3.87;;
2129;SDS011;1071;52.544;13.374;2023-08-17T00:23:40;4.03;;;3.30;;
2129;SDS011;1071;52.544;13.374;2023-08-17T00:26:08;2.77;;;2.57;;
2129;SDS011;1071;52.544;13.374;2023-08-17T00:28:35;4.07;;;3.23;;
2129;SDS011;1071;52.544;13.374;2023-08-17T00:31:03;6.47;;;3.63;;
2129;SDS011;1071;52.544;13.374;2023-08-17T00:33:30;6.23;;;3.60;;
2129;SDS011;1071;52.544;13.374;2023-08-17T00:35:59;3.57;;;3.00;;
2129;SDS011;1071;52.544;13.374;2023-08-17T00:38:26;4.67;;;3.27;;
2129;SDS011;1071;52.544;13.374;2023-08-17T00:40:55;4.43;;;3.13;;
2129;SDS011;1071;52.544;13.374;2023-08-17T00:43:23;5.43;;;3.17;;
2129;SDS011;1071;52.544;13.374;2023-08-17T00:45:50;4.63;;;3.30;;
2129;SDS011;1071;52.544;13.374;2023-08-17T00:48:18;4.07;;;3.73;;
2129;SDS011;1071;52.544;13.374;2023-08-17T00:50:45;5.73;;;3.30;;
2129;SDS011;1071;52.544;13.374;2023-08-17T00:53:15;4.10;;;3.70;;
2129;SDS011;1071;52.544;13.374;2023-08-17T00:55:42;4.50;;;2.97;;
2129;SDS011;1071;52.544;13.374;2023-08-17T00:58:09;3.77;;;3.20;;
2129;SDS011;1071;52.544;13.374;2023-08-17T01:00:39;4.47;;;3.57;;
2129;SDS011;1071;52.544;13.374;2023-08-17T01:03:06;4.43;;;3.27;;
2129;SDS011;1071;52.544;13.374;2023-08-17T01:05:33;4.13;;;2.73;;
2129;SDS011;1071;52.544;13.374;2023-08-17T01:08:01;4.00;;;3.13;;
2129;SDS011;1071;52.544;13.374;2023-08-17T01:10:30;6.83;;;3.53;;
2129;SDS011;1071;52.544;13.374;2023-08-17T01:13:04;4.50;;;3.23;;
2129;SDS011;1071;52.544;13.374;2023-08-17T01:15:36;4.67;;;4.17;;
2129;SDS011;1071;52.544;13.374;2023-08-17T01:18:09;3.07;;;2.77;;
2129;SDS011;1071;52.544;13.374;2023-08-17T01:20:45;4.17;;;3.63;;
2129;SDS011;1071;52.544;13.374;2023-08-17T01:23:14;5.33;;;3.90;;
2129;SDS011;1071;52.544;13.374;2023-08-17T01:25:41;5.07;;;3.40;;
2129;SDS011;1071;52.544;13.374;2023-08-17T01:28:08;4.00;;;3.30;;
2129;SDS011;1071;52.544;13.374;2023-08-17T01:30:37;5.63;;;3.57;;
2129;SDS011;1071;52.544;13.374;2023-08-17T01:33:18;4.57;;;4.10;;
2129;SDS011;1071;52.544;13.374;2023-08-17T01:35:52;3.60;;;3.07;;
2129;SDS011;1071;52.544;13.374;2023-08-17T01:38:27;4.77;;;3.23;;
2129;SDS011;1071;52.544;13.374;2023-08-17T01:40:56;3.90;;;3.23;;
2129;SDS011;1071;52.544;13.374;2023-08-17T01:43:24;4.40;;;3.73;;
2129;SDS011;1071;52.544;13.374;2023-08-17T01:45:52;5.63;;;3.20;;
2129;SDS011;1071;52.544;13.374;2023-08-17T01:48:19;4.63;;;3.40;;
2129;SDS011;1071;52.544;13.374;2023-08-17T01:50:46;3.80;;;3.50;;
2129;SDS011;1071;52.544;13.374;2023-08-17T01:53:13;3.70;;;3.37;;
2129;SDS011;1071;52.544;13.374;2023-08-17T01:55:41;6.63;;;3.70;;
2129;SDS011;1071;52.544;13.374;2023-08-17T01:58:08;5.77;;;3.90;;
2129;SDS011;1071;52.544;13.374;2023-08-17T02:00:38;7.23;;;3.47;;
2129;SDS011;1071;52.544;13.374;2023-08-17T02:03:05;3.87;;;3.40;;
2129;SDS011;1071;52.544;13.374;2023-08-17T02:05:32;3.93;;;2.77;;
2129;SDS011;1071;52.544;13.374;2023-08-17T02:07:59;4.13;;;2.83;;
2129;SDS011;1071;52.544;13.374;2023-08-17T02:10:26;3.33;;;3.13;;
2129;SDS011;1071;52.544;13.374;2023-08-17T02:12:54;5.60;;;3.33;;
2129;SDS011;1071;52.544;13.374;2023-08-17T02:15:21;3.23;;;2.93;;
2129;SDS011;1071;52.544;13.374;2023-08-17T02:17:48;6.33;;;3.73;;
2129;SDS011;1071;52.544;13.374;2023-08-17T02:20:15;3.40;;;3.10;;
2129;SDS011;1071;52.544;13.374;2023-08-17T02:22:42;4.03;;;3.70;;
2129;SDS011;1071;52.544;13.374;2023-08-17T02:25:11;5.30;;;3.57;;
2129;SDS011;1071;52.544;13.374;2023-08-17T02:27:38;3.80;;;3.30;;
2129;SDS011;1071;52.544;13.374;2023-08-17T02:30:07;3.70;;;3.00;;
2129;SDS011;1071;52.544;13.374;2023-08-17T02:32:34;5.17;;;3.50;;
2129;SDS011;1071;52.544;13.374;2023-08-17T02:35:02;4.23;;;3.20;;
2129;SDS011;1071;52.544;13.374;2023-08-17T02:37:29;6.30;;;3.63;;
2129;SDS011;1071;52.544;13.374;2023-08-17T02:39:59;3.80;;;3.40;;
2129;SDS011;1071;52.544;13.374;2023-08-17T02:42:26;5.23;;;3.40;;
2129;SDS011;1071;52.544;13.374;2023-08-17T02:44:53;4.37;;;3.40;;
2129;SDS011;1071;52.544;13.374;2023-08-17T02:47:21;6.47;;;3.73;;
2129;SDS011;1071;52.544;13.374;2023-08-17T02:49:48;3.67;;;3.33;;
2129;SDS011;1071;52.544;13.374;2023-08-17T02:52:15;6.00;;;3.67;;
2129;SDS011;1071;52.544;13.374;2023-08-17T02:54:42;4.43;;;3.30;;
2129;SDS011;1071;52.544;13.374;2023-08-17T02:57:09;5.07;;;3.57;;
2129;SDS011;1071;52.544;13.374;2023-08-17T02:59:37;3.80;;;3.20;;
2129;SDS011;1071;52.544;13.374;2023-08-17T03:02:04;5.20;;;3.60;;
2129;SDS011;1071;52.544;13.374;2023-08-17T03:04:32;6.50;;;3.77;;
2129;SDS011;1071;52.544;13.374;2023-08-17T03:06:59;3.67;;;3.33;;
2129;SDS011;1071;52.544;13.374;2023-08-17T03:09:26;3.83;;;3.53;;
2129;SDS011;1071;52.544;13.374;2023-08-17T03:11:53;4.47;;;3.80;;
2129;SDS011;1071;52.544;13.374;2023-08-17T03:14:20;3.97;;;3.23;;
2129;SDS011;1071;52.544;13.374;2023-08-17T03:16:47;4.97;;;3.43;;
2129;SDS011;1071;52.544;13.374;2023-08-17T03:19:14;4.03;;;3.63;;
2129;SDS011;1071;52.544;13.374;2023-08-17T03:21:42;3.57;;;3.27;;
2129;SDS011;1071;52.544;13.374;2023-08-17T03:24:09;4.97;;;3.30;;
2129;SDS011;1071;52.544;13.374;2023-08-17T03:26:36;7.13;;;3.47;;
2129;SDS011;1071;52.544;13.374;2023-08-17T03:29:05;5.50;;;3.83;;
2129;SDS011;1071;52.544;13.374;2023-08-17T03:31:33;4.47;;;3.00;;
2129;SDS011;1071;52.544;13.374;2023-08-17T03:34:00;4.83;;;3.40;;
2129;SDS011;1071;52.544;13.374;2023-08-17T03:36:27;3.73;;;2.40;;
2129;SDS011;1071;52.544;13.374;2023-08-17T03:38:55;3.10;;;2.20;;
2129;SDS011;1071;52.544;13.374;2023-08-17T03:41:22;4.70;;;3.07;;
2129;SDS011;1071;52.544;13.374;2023-08-17T03:43:53;3.53;;;3.23;;
2129;SDS011;1071;52.544;13.374;2023-08-17T03:46:20;3.00;;;2.60;;
2129;SDS011;1071;52.544;13.374;2023-08-17T03:48:46;2.90;;;2.60;;
2129;SDS011;1071;52.544;13.374;2023-08-17T03:51:13;3.13;;;2.80;;
2129;SDS011;1071;52.544;13.374;2023-08-17T03:53:40;3.07;;;2.80;;
2129;SDS011;1071;52.544;13.374;2023-08-17T03:56:08;4.80;;;2.23;;
2129;SDS011;1071;52.544;13.374;2023-08-17T03:58:35;2.87;;;2.67;;
2129;SDS011;1071;52.544;13.374;2023-08-17T04:01:02;3.50;;;3.20;;
2129;SDS011;1071;52.544;13.374;2023-08-17T04:03:31;2.80;;;2.17;;
2129;SDS011;1071;52.544;13.374;2023-08-17T04:06:04;3.40;;;2.70;;
2129;SDS011;1071;52.544;13.374;2023-08-17T04:08:32;6.30;;;2.93;;
2129;SDS011;1071;52.544;13.374;2023-08-17T04:11:01;3.40;;;2.60;;
2129;SDS011;1071;52.544;13.374;2023-08-17T04:13:29;4.97;;;2.67;;
2129;SDS011;1071;52.544;13.374;2023-08-17T04:15:56;3.63;;;2.60;;
2129;SDS011;1071;52.544;13.374;2023-08-17T04:18:23;2.37;;;2.20;;
2129;SDS011;1071;52.544;13.374;2023-08-17T04:20:50;2.93;;;2.53;;
2129;SDS011;1071;52.544;13.374;2023-08-17T04:23:17;3.20;;;2.97;;
2129;SDS011;1071;52.544;13.374;2023-08-17T04:25:46;2.27;;;2.07;;
2129;SDS011;1071;52.544;13.374;2023-08-17T04:28:14;4.00;;;2.93;;
2129;SDS011;1071;52.544;13.374;2023-08-17T04:30:42;4.40;;;2.53;;
2129;SDS011;1071;52.544;13.374;2023-08-17T04:33:09;3.37;;;2.57;;
2129;SDS011;1071;52.544;13.374;2023-08-17T04:35:38;4.43;;;2.60;;
2129;SDS011;1071;52.544;13.374;2023-08-17T04:38:04;4.70;;;2.50;;
2129;SDS011;1071;52.544;13.374;2023-08-17T04:40:32;2.50;;;2.13;;
2129;SDS011;1071;52.544;13.374;2023-08-17T04:42:59;5.47;;;2.27;;
2129;SDS011;1071;52.544;13.374;2023-08-17T04:45:26;4.10;;;2.53;;
2129;SDS011;1071;52.544;13.374;2023-08-17T04:47:55;6.03;;;2.87;;
2129;SDS011;1071;52.544;13.374;2023-08-17T04:50:22;3.07;;;2.87;;
2129;SDS011;1071;52.544;13.374;2023-08-17T04:52:48;2.73;;;2.53;;
2129;SDS011;1071;52.544;13.374;2023-08-17T04:55:15;5.63;;;3.30;;
2129;SDS011;1071;52.544;13.374;2023-08-17T04:57:45;6.30;;;2.80;;
2129;SDS011;1071;52.544;13.374;2023-08-17T05:00:12;4.30;;;2.40;;
2129;SDS011;1071;52.544;13.374;2023-08-17T05:02:40;4.13;;;2.77;;
2129;SDS011;1071;52.544;13.374;2023-08-17T05:05:09;2.80;;;2.33;;
2129;SDS011;1071;52.544;13.374;2023-08-17T05:07:37;6.27;;;2.73;;
2129;SDS011;1071;52.544;13.374;2023-08-17T05:10:04;2.40;;;2.20;;
2129;SDS011;1071;52.544;13.374;2023-08-17T05:12:31;4.67;;;2.83;;
2129;SDS011;1071;52.544;13.374;2023-08-17T05:14:58;6.03;;;2.63;;
2129;SDS011;1071;52.544;13.374;2023-08-17T05:17:25;3.17;;;2.87;;
2129;SDS011;1071;52.544;13.374;2023-08-17T05:19:52;3.80;;;2.63;;
2129;SDS011;1071;52.544;13.374;2023-08-17T05:22:20;6.80;;;2.93;;
2129;SDS011;1071;52.544;13.374;2023-08-17T05:24:48;4.77;;;2.80;;
2129;SDS011;1071;52.544;13.374;2023-08-17T05:27:15;4.37;;;2.67;;
2129;SDS011;1071;52.544;13.374;2023-08-17T05:29:42;10.23;;;3.77;;
2129;SDS011;1071;52.544;13.374;2023-08-17T05:32:09;3.70;;;3.40;;
2129;SDS011;1071;52.544;13.374;2023-08-17T05:34:36;4.57;;;3.77;;
2129;SDS011;1071;52.544;13.374;2023-08-17T05:37:08;7.00;;;3.90;;
2129;SDS011;1071;52.544;13.374;2023-08-17T05:39:37;3.10;;;2.90;;
2129;SDS011;1071;52.544;13.374;2023-08-17T05:42:04;3.30;;;3.00;;
2129;SDS011;1071;52.544;13.374;2023-08-17T05:44:31;5.10;;;2.63;;
2129;SDS011;1071;52.544;13.374;2023-08-17T05:46:58;6.93;;;3.03;;
2129;SDS011;1071;52.544;13.374;2023-08-17T05:49:25;6.60;;;3.43;;
2129;SDS011;1071;52.544;13.374;2023-08-17T05:51:52;4.07;;;2.57;;
2129;SDS011;1071;52.544;13.374;2023-08-17T05:54:19;6.80;;;2.80;;
2129;SDS011;1071;52.544;13.374;2023-08-17T05:56:47;4.47;;;2.57;;
2129;SDS011;1071;52.544;13.374;2023-08-17T05:59:17;4.60;;;2.93;;
2129;SDS011;1071;52.544;13.374;2023-08-17T06:01:44;5.17;;;2.87;;
2129;SDS011;1071;52.544;13.374;2023-08-17T06:04:11;2.77;;;2.53;;
2129;SDS011;1071;52.544;13.374;2023-08-17T06:06:38;3.13;;;2.60;;
2129;SDS011;1071;52.544;13.374;2023-08-17T06:09:05;3.33;;;2.90;;
2129;SDS011;1071;52.544;13.374;2023-08-17T06:11:33;3.20;;;2.90;;
2129;SDS011;1071;52.544;13.374;2023-08-17T06:14:04;3.60;;;2.57;;
2129;SDS011;1071;52.544;13.374;2023-08-17T06:16:34;2.90;;;2.70;;
2129;SDS011;1071;52.544;13.374;2023-08-17T06:19:01;3.90;;;2.73;;
2129;SDS011;1071;52.544;13.374;2023-08-17T06:21:29;2.63;;;2.33;;
2129;SDS011;1071;52.544;13.374;2023-08-17T06:23:56;3.13;;;2.70;;
2129;SDS011;1071;52.544;13.374;2023-08-17T06:26:23;5.53;;;2.73;;
2129;SDS011;1071;52.544;13.374;2023-08-17T06:28:50;3.07;;;2.80;;
2129;SDS011;1071;52.544;13.374;2023-08-17T06:31:18;3.10;;;2.60;;
2129;SDS011;1071;52.544;13.374;2023-08-17T06:33:45;2.47;;;2.27;;
2129;SDS011;1071;52.544;13.374;2023-08-17T06:36:12;3.77;;;2.77;;
2129;SDS011;1071;52.544;13.374;2023-08-17T06:38:41;3.17;;;2.70;;
2129;SDS011;1071;52.544;13.374;2023-08-17T06:41:08;5.37;;;3.60;;
2129;SDS011;1071;52.544;13.374;2023-08-17T06:43:35;3.03;;;2.50;;
2129;SDS011;1071;52.544;13.374;2023-08-17T06:46:02;2.93;;;2.67;;
2129;SDS011;1071;52.544;13.374;2023-08-17T06:48:31;3.23;;;2.97;;
2129;SDS011;1071;52.544;13.374;2023-08-17T06:50:58;3.23;;;2.53;;
2129;SDS011;1071;52.544;13.374;2023-08-17T06:53:25;4.77;;;2.80;;
2129;SDS011;1071;52.544;13.374;2023-08-17T06:55:52;4.30;;;3.33;;
2129;SDS011;1071;52.544;13.374;2023-08-17T06:58:21;4.53;;;3.53;;
2129;SDS011;1071;52.544;13.374;2023-08-17T07:00:52;3.20;;;2.90;;
2129;SDS011;1071;52.544;13.374;2023-08-17T07:03:20;4.80;;;3.50;;
2129;SDS011;1071;52.544;13.374;2023-08-17T07:05:48;3.70;;;3.40;;
2129;SDS011;1071;52.544;13.374;2023-08-17T07:08:15;2.43;;;2.23;;
2129;SDS011;1071;52.544;13.374;2023-08-17T07:10:42;3.10;;;2.90;;
2129;SDS011;1071;52.544;13.374;2023-08-17T07:13:10;3.67;;;3.10;;
2129;SDS011;1071;52.544;13.374;2023-08-17T07:15:37;4.20;;;2.90;;
2129;SDS011;1071;52.544;13.374;2023-08-17T07:18:04;4.90;;;3.30;;
2129;SDS011;1071;52.544;13.374;2023-08-17T07:20:31;3.50;;;3.00;;
2129;SDS011;1071;52.544;13.374;2023-08-17T07:23:01;3.90;;;3.60;;
2129;SDS011;1071;52.544;13.374;2023-08-17T07:25:28;4.20;;;3.50;;
2129;SDS011;1071;52.544;13.374;2023-08-17T07:27:55;4.60;;;2.70;;
2129;SDS011;1071;52.544;13.374;2023-08-17T07:30:22;3.20;;;2.90;;
2129;SDS011;1071;52.544;13.374;2023-08-17T07:32:50;3.13;;;2.80;;
2129;SDS011;1071;52.544;13.374;2023-08-17T07:35:17;3.40;;;2.53;;
2129;SDS011;1071;52.544;13.374;2023-08-17T07:37:44;2.97;;;2.77;;
2129;SDS011;1071;52.544;13.374;2023-08-17T07:40:15;3.33;;;3.03;;
2129;SDS011;1071;52.544;13.374;2023-08-17T07:42:42;4.63;;;3.07;;
2129;SDS011;1071;52.544;13.374;2023-08-17T07:45:09;4.23;;;3.33;;
2129;SDS011;1071;52.544;13.374;2023-08-17T07:47:37;3.40;;;3.10;;
2129;SDS011;1071;52.544;13.374;2023-08-17T07:50:04;3.40;;;3.10;;
2129;SDS011;1071;52.544;13.374;2023-08-17T07:52:39;3.73;;;3.13;;
2129;SDS011;1071;52.544;13.374;2023-08-17T07:55:16;3.53;;;3.20;;
2129;SDS011;1071;52.544;13.374;2023-08-17T07:58:05;4.63;;;3.43;;
2129;SDS011;1071;52.544;13.374;2023-08-17T08:00:34;4.80;;;3.03;;
2129;SDS011;1071;52.544;13.374;2023-08-17T08:03:01;6.23;;;4.07;;
2129;SDS011;1071;52.544;13.374;2023-08-17T08:05:28;5.90;;;4.17;;
2129;SDS011;1071;52.544;13.374;2023-08-17T08:07:55;3.57;;;3.07;;
2129;SDS011;1071;52.544;13.374;2023-08-17T08:10:24;4.60;;;2.60;;
2129;SDS011;1071;52.544;13.374;2023-08-17T08:12:51;3.53;;;3.23;;
2129;SDS011;1071;52.544;13.374;2023-08-17T08:15:18;4.97;;;4.00;;
2129;SDS011;1071;52.544;13.374;2023-08-17T08:17:45;4.70;;;3.77;;
2129;SDS011;1071;52.544;13.374;2023-08-17T08:20:13;3.67;;;3.10;;
2129;SDS011;1071;52.544;13.374;2023-08-17T08:22:40;3.83;;;3.57;;
2129;SDS011;1071;52.544;13.374;2023-08-17T08:25:07;3.37;;;3.07;;
2129;SDS011;1071;52.544;13.374;2023-08-17T08:27:36;4.67;;;2.90;;
2129;SDS011;1071;52.544;13.374;2023-08-17T08:30:03;4.07;;;3.67;;
2129;SDS011;1071;52.544;13.374;2023-08-17T08:32:32;4.10;;;3.77;;
2129;SDS011;1071;52.544;13.374;2023-08-17T08:34:59;6.10;;;3.30;;
2129;SDS011;1071;52.544;13.374;2023-08-17T08:37:26;3.40;;;3.10;;
2129;SDS011;1071;52.544;13.374;2023-08-17T08:39:54;4.03;;;3.47;;
2129;SDS011;1071;52.544;13.374;2023-08-17T08:42:29;3.80;;;3.40;;
2129;SDS011;1071;52.544;13.374;2023-08-17T08:44:58;5.87;;;3.67;;
2129;SDS011;1071;52.544;13.374;2023-08-17T08:47:25;3.50;;;3.30;;
2129;SDS011;1071;52.544;13.374;2023-08-17T08:49:58;7.93;;;3.77;;
2129;SDS011;1071;52.544;13.374;2023-08-17T08:52:50;4.37;;;3.67;;
2129;SDS011;1071;52.544;13.374;2023-08-17T08:55:51;4.53;;;3.67;;
2129;SDS011;1071;52.544;13.374;2023-08-17T08:58:21;3.87;;;3.57;;
2129;SDS011;1071;52.544;13.374;2023-08-17T09:00:52;3.63;;;3.30;;
2129;SDS011;1071;52.544;13.374;2023-08-17T09:03:19;3.47;;;3.20;;
2129;SDS011;1071;52.544;13.374;2023-08-17T09:05:47;5.00;;;4.00;;
2129;SDS011;1071;52.544;13.374;2023-08-17T09:08:17;3.90;;;3.60;;
2129;SDS011;1071;52.544;13.374;2023-08-17T09:10:46;4.63;;;4.20;;
2129;SDS011;1071;52.544;13.374;2023-08-17T09:13:13;9.37;;;4.17;;
2129;SDS011;1071;52.544;13.374;2023-08-17T09:15:40;3.73;;;3.43;;
2129;SDS011;1071;52.544;13.374;2023-08-17T09:18:09;4.03;;;3.07;;
2129;SDS011;1071;52.544;13.374;2023-08-17T09:20:37;8.07;;;3.77;;
2129;SDS011;1071;52.544;13.374;2023-08-17T09:23:09;5.27;;;4.03;;
2129;SDS011;1071;52.544;13.374;2023-08-17T09:25:48;4.00;;;3.70;;
2129;SDS011;1071;52.544;13.374;2023-08-17T09:28:17;3.87;;;3.57;;
2129;SDS011;1071;52.544;13.374;2023-08-17T09:30:49;6.00;;;4.40;;
2129;SDS011;1071;52.544;13.374;2023-08-17T09:33:19;4.13;;;3.87;;
2129;SDS011;1071;52.544;13.374;2023-08-17T09:35:49;4.57;;;4.03;;
2129;SDS011;1071;52.544;13.374;2023-08-17T09:38:19;4.83;;;3.70;;
2129;SDS011;1071;52.544;13.374;2023-08-17T09:40:46;7.00;;;3.80;;
2129;SDS011;1071;52.544;13.374;2023-08-17T09:43:13;5.30;;;4.87;;
2129;SDS011;1071;52.544;13.374;2023-08-17T09:45:40;6.90;;;4.30;;
2129;SDS011;1071;52.544;13.374;2023-08-17T09:48:09;4.27;;;3.97;;
2129;SDS011;1071;52.544;13.374;2023-08-17T09:50:38;5.80;;;4.37;;
2129;SDS011;1071;52.544;13.374;2023-08-17T09:53:05;4.57;;;4.17;;
2129;SDS011;1071;52.544;13.374;2023-08-17T09:55:31;4.53;;;3.80;;
2129;SDS011;1071;52.544;13.374;2023-08-17T09:57:59;3.60;;;3.40;;
2129;SDS011;1071;52.544;13.374;2023-08-17T10:00:27;4.00;;;3.70;;
2129;SDS011;1071;52.544;13.374;2023-08-17T10:02:54;4.50;;;4.20;;
2129;SDS011;1071;52.544;13.374;2023-08-17T10:05:24;5.70;;;5.10;;
2129;SDS011;1071;52.544;13.374;2023-08-17T10:07:56;4.23;;;3.60;;
2129;SDS011;1071;52.544;13.374;2023-08-17T10:10:26;5.60;;;3.90;;
2129;SDS011;1071;52.544;13.374;2023-08-17T10:12:57;4.50;;;4.10;;
2129;SDS011;1071;52.544;13.374;2023-08-17T10:15:32;4.30;;;3.90;;
2129;SDS011;1071;52.544;13.374;2023-08-17T10:18:02;5.27;;;4.80;;
2129;SDS011;1071;52.544;13.374;2023-08-17T10:20:45;5.10;;;4.60;;
2129;SDS011;1071;52.544;13.374;2023-08-17T10:23:26;3.90;;;3.60;;
2129;SDS011;1071;52.544;13.374;2023-08-17T10:25:55;4.80;;;3.90;;
2129;SDS011;1071;52.544;13.374;2023-08-17T10:28:26;5.10;;;4.53;;
2129;SDS011;1071;52.544;13.374;2023-08-17T10:30:54;4.50;;;4.10;;
2129;SDS011;1071;52.544;13.374;2023-08-17T10:33:21;4.23;;;3.90;;
2129;SDS011;1071;52.544;13.374;2023-08-17T10:35:48;4.23;;;3.93;;
2129;SDS011;1071;52.544;13.374;2023-08-17T10:38:15;5.03;;;4.53;;
2129;SDS011;1071;52.544;13.374;2023-08-17T10:40:44;4.43;;;3.70;;
2129;SDS011;1071;52.544;13.374;2023-08-17T10:43:32;4.70;;;4.30;;
2129;SDS011;1071;52.544;13.374;2023-08-17T10:46:01;5.97;;;4.00;;
2129;SDS011;1071;52.544;13.374;2023-08-17T10:48:43;4.90;;;4.40;;
2129;SDS011;1071;52.544;13.374;2023-08-17T10:51:10;5.10;;;4.80;;
2129;SDS011;1071;52.544;13.374;2023-08-17T10:53:38;5.40;;;4.90;;
2129;SDS011;1071;52.544;13.374;2023-08-17T10:56:12;4.70;;;4.40;;
2129;SDS011;1071;52.544;13.374;2023-08-17T10:58:41;4.73;;;4.43;;
2129;SDS011;1071;52.544;13.374;2023-08-17T11:01:09;7.00;;;4.10;;
2129;SDS011;1071;52.544;13.374;2023-08-17T11:03:45;5.10;;;4.10;;
2129;SDS011;1071;52.544;13.374;2023-08-17T11:06:33;4.67;;;4.27;;
2129;SDS011;1071;52.544;13.374;2023-08-17T11:09:05;4.70;;;4.30;;
2129;SDS011;1071;52.544;13.374;2023-08-17T11:11:35;4.57;;;4.20;;
2129;SDS011;1071;52.544;13.374;2023-08-17T11:14:02;4.33;;;4.03;;
2129;SDS011;1071;52.544;13.374;2023-08-17T11:16:29;4.30;;;3.90;;
2129;SDS011;1071;52.544;13.374;2023-08-17T11:18:56;4.60;;;4.03;;
2129;SDS011;1071;52.544;13.374;2023-08-17T11:21:29;4.70;;;4.30;;
2129;SDS011;1071;52.544;13.374;2023-08-17T11:23:56;6.37;;;4.13;;
2129;SDS011;1071;52.544;13.374;2023-08-17T11:26:24;4.63;;;4.33;;
2129;SDS011;1071;52.544;13.374;2023-08-17T11:28:54;6.90;;;4.77;;
2129;SDS011;1071;52.544;13.374;2023-08-17T11:31:21;5.87;;;5.27;;
2129;SDS011;1071;52.544;13.374;2023-08-17T11:33:49;4.90;;;4.50;;
2129;SDS011;1071;52.544;13.374;2023-08-17T11:36:16;4.90;;;4.50;;
2129;SDS011;1071;52.544;13.374;2023-08-17T11:38:43;4.97;;;4.53;;
2129;SDS011;1071;52.544;13.374;2023-08-17T11:41:11;4.93;;;4.53;;
2129;SDS011;1071;52.544;13.374;2023-08-17T11:43:39;4.80;;;4.40;;
2129;SDS011;1071;52.544;13.374;2023-08-17T11:46:08;5.23;;;4.73;;
2129;SDS011;1071;52.544;13.374;2023-08-17T11:48:35;4.90;;;4.50;;
2129;SDS011;1071;52.544;13.374;2023-08-17T11:51:03;5.43;;;5.03;;
2129;SDS011;1071;52.544;13.374;2023-08-17T11:53:33;5.27;;;4.60;;
2129;SDS011;1071;52.544;13.374;2023-08-17T11:56:00;5.23;;;4.80;;
2129;SDS011;1071;52.544;13.374;2023-08-17T11:58:39;5.57;;;5.17;;
2129;SDS011;1071;52.544;13.374;2023-08-17T12:01:10;5.33;;;4.93;;
2129;SDS011;1071;52.544;13.374;2023-08-17T12:03:37;5.20;;;4.60;;
2129;SDS011;1071;52.544;13.374;2023-08-17T12:06:06;4.63;;;4.30;;
2129;SDS011;1071;52.544;13.374;2023-08-17T12:08:33;4.53;;;4.23;;
2129;SDS011;1071;52.544;13.374;2023-08-17T12:11:01;5.07;;;4.67;;
2129;SDS011;1071;52.544;13.374;2023-08-17T12:13:31;6.10;;;5.50;;
2129;SDS011;1071;52.544;13.374;2023-08-17T12:15:59;5.63;;;5.33;;
2129;SDS011;1071;52.544;13.374;2023-08-17T12:18:28;6.03;;;4.83;;
2129;SDS011;1071;52.544;13.374;2023-08-17T12:20:58;6.63;;;5.17;;
2129;SDS011;1071;52.544;13.374;2023-08-17T12:23:25;6.00;;;5.50;;
2129;SDS011;1071;52.544;13.374;2023-08-17T12:25:55;5.53;;;5.13;;
2129;SDS011;1071;52.544;13.374;2023-08-17T12:28:25;8.43;;;5.63;;
2129;SDS011;1071;52.544;13.374;2023-08-17T12:30:59;5.77;;;5.20;;
2129;SDS011;1071;52.544;13.374;2023-08-17T12:33:31;6.93;;;6.00;;
2129;SDS011;1071;52.544;13.374;2023-08-17T12:35:58;6.33;;;5.73;;
2129;SDS011;1071;52.544;13.374;2023-08-17T12:38:26;6.40;;;5.90;;
2129;SDS011;1071;52.544;13.374;2023-08-17T12:40:54;6.73;;;6.10;;
2129;SDS011;1071;52.544;13.374;2023-08-17T12:43:23;6.37;;;5.93;;
2129;SDS011;1071;52.544;13.374;2023-08-17T12:45:53;7.17;;;6.47;;
2129;SDS011;1071;52.544;13.374;2023-08-17T12:48:20;6.03;;;5.63;;
2129;SDS011;1071;52.544;13.374;2023-08-17T12:50:48;8.03;;;7.27;;
2129;SDS011;1071;52.544;13.374;2023-08-17T12:53:15;6.37;;;5.77;;
2129;SDS011;1071;52.544;13.374;2023-08-17T12:55:42;5.90;;;5.50;;
2129;SDS011;1071;52.544;13.374;2023-08-17T12:58:09;6.50;;;6.00;;
2129;SDS011;1071;52.544;13.374;2023-08-17T13:00:36;6.33;;;5.83;;
2129;SDS011;1071;52.544;13.374;2023-08-17T13:03:03;6.60;;;6.20;;
2129;SDS011;1071;52.544;13.374;2023-08-17T13:05:32;6.83;;;6.23;;
2129;SDS011;1071;52.544;13.374;2023-08-17T13:08:00;5.73;;;5.30;;
2129;SDS011;1071;52.544;13.374;2023-08-17T13:10:28;6.83;;;6.33;;
2129;SDS011;1071;52.544;13.374;2023-08-17T13:12:55;6.20;;;5.80;;
2129;SDS011;1071;52.544;13.374;2023-08-17T13:15:24;6.37;;;5.77;;
2129;SDS011;1071;52.544;13.374;2023-08-17T13:17:51;6.27;;;5.83;;
2129;SDS011;1071;52.544;13.374;2023-08-17T13:20:18;6.17;;;5.77;;
2129;SDS011;1071;52.544;13.374;2023-08-17T13:22:45;5.40;;;5.00;;
2129;SDS011;1071;52.544;13.374;2023-08-17T13:25:18;5.83;;;5.43;;
2129;SDS011;1071;52.544;13.374;2023-08-17T13:27:45;6.70;;;6.10;;
2129;SDS011;1071;52.544;13.374;2023-08-17T13:30:12;6.13;;;5.73;;
2129;SDS011;1071;52.544;13.374;2023-08-17T13:32:39;6.70;;;6.20;;
2129;SDS011;1071;52.544;13.374;2023-08-17T13:35:07;7.10;;;6.60;;
2129;SDS011;1071;52.544;13.374;2023-08-17T13:40:03;6.47;;;6.07;;
2129;SDS011;1071;52.544;13.374;2023-08-17T13:42:33;7.97;;;7.30;;
2129;SDS011;1071;52.544;13.374;2023-08-17T13:45:00;7.10;;;6.57;;
2129;SDS011;1071;52.544;13.374;2023-08-17T13:47:28;6.07;;;5.67;;
2129;SDS011;1071;52.544;13.374;2023-08-17T13:49:55;5.97;;;5.47;;
2129;SDS011;1071;52.544;13.374;2023-08-17T13:52:22;6.20;;;5.70;;
2129;SDS011;1071;52.544;13.374;2023-08-17T13:54:49;6.77;;;6.17;;
2129;SDS011;1071;52.544;13.374;2023-08-17T13:57:19;6.70;;;5.17;;
2129;SDS011;1071;52.544;13.374;2023-08-17T13:59:51;6.30;;;5.80;;
2129;SDS011;1071;52.544;13.374;2023-08-17T14:02:18;6.50;;;6.07;;
2129;SDS011;1071;52.544;13.374;2023-08-17T14:04:45;5.77;;;5.20;;
2129;SDS011;1071;52.544;13.374;2023-08-17T14:07:12;7.33;;;5.80;;
2129;SDS011;1071;52.544;13.374;2023-08-17T14:09:39;6.17;;;5.67;;
2129;SDS011;1071;52.544;13.374;2023-08-17T14:12:06;6.00;;;5.43;;
2129;SDS011;1071;52.544;13.374;2023-08-17T14:14:34;6.80;;;6.10;;
2129;SDS011;1071;52.544;13.374;2023-08-17T14:17:02;5.50;;;5.03;;
2129;SDS011;1071;52.544;13.374;2023-08-17T14:19:29;6.70;;;6.20;;
2129;SDS011;1071;52.544;13.374;2023-08-17T14:21:57;6.07;;;5.67;;
2129;SDS011;1071;52.544;13.374;2023-08-17T14:24:28;6.30;;;5.60;;
2129;SDS011;1071;52.544;13.374;2023-08-17T14:26:56;5.73;;;5.23;;
2129;SDS011;1071;52.544;13.374;2023-08-17T14:29:23;5.30;;;4.90;;
2129;SDS011;1071;52.544;13.374;2023-08-17T14:31:50;5.27;;;4.93;;
2129;SDS011;1071;52.544;13.374;2023-08-17T14:34:18;6.03;;;5.53;;
2129;SDS011;1071;52.544;13.374;2023-08-17T14:36:59;5.07;;;4.77;;
2129;SDS011;1071;52.544;13.374;2023-08-17T14:39:31;6.20;;;5.70;;
2129;SDS011;1071;52.544;13.374;2023-08-17T14:41:58;6.27;;;5.77;;
2129;SDS011;1071;52.544;13.374;2023-08-17T14:44:32;6.87;;;6.37;;
2129;SDS011;1071;52.544;13.374;2023-08-17T14:46:59;4.93;;;4.63;;
2129;SDS011;1071;52.544;13.374;2023-08-17T14:49:35;5.50;;;5.00;;
2129;SDS011;1071;52.544;13.374;2023-08-17T14:52:06;5.50;;;5.00;;
2129;SDS011;1071;52.544;13.374;2023-08-17T14:54:43;5.83;;;5.07;;
2129;SDS011;1071;52.544;13.374;2023-08-17T14:57:13;5.47;;;5.07;;
2129;SDS011;1071;52.544;13.374;2023-08-17T14:59:40;6.00;;;5.60;;
2129;SDS011;1071;52.544;13.374;2023-08-17T15:02:07;6.30;;;5.30;;
2129;SDS011;1071;52.544;13.374;2023-08-17T15:04:36;5.63;;;5.00;;
2129;SDS011;1071;52.544;13.374;2023-08-17T15:07:04;5.83;;;5.33;;
2129;SDS011;1071;52.544;13.374;2023-08-17T15:09:35;6.10;;;5.60;;
2129;SDS011;1071;52.544;13.374;2023-08-17T15:12:03;5.43;;;5.03;;
2129;SDS011;1071;52.544;13.374;2023-08-17T15:14:34;6.53;;;5.03;;